sensor_id;sensor_type;location;lat;lon;timestamp;P1;durP1;ratioP1;P2;durP2;ratioP2
78740;SDS011;68062;48.726;9.370;2023-04-07T00:00:36;9.47;;;5.90;;
78740;SDS011;68062;48.726;9.370;2023-04-07T00:03:04;7.70;;;5.10;;
78740;SDS011;68062;48.726;9.370;2023-04-07T00:05:32;8.40;;;5.37;;
78740;SDS011;68062;48.726;9.370;2023-04-07T00:07:58;8.63;;;5.33;;
78740;SDS011;68062;48.726;9.370;2023-04-07T00:10:25;7.70;;;5.80;;
78740;SDS011;68062;48.726;9.370;2023-04-07T00:12:52;6.70;;;5.07;;
78740;SDS011;68062;48.726;9.370;2023-04-07T00:15:18;7.87;;;4.90;;
78740;SDS011;68062;48.726;9.370;2023-04-07T00:17:45;9.53;;;5.10;;
78740;SDS011;68062;48.726;9.370;2023-04-07T00:20:15;6.80;;;5.00;;
78740;SDS011;68062;48.726;9.370;2023-04-07T00:22:41;8.20;;;5.73;;
78740;SDS011;68062;48.726;9.370;2023-04-07T00:25:08;7.87;;;5.97;;
78740;SDS011;68062;48.726;9.370;2023-04-07T00:27:35;6.90;;;5.10;;
78740;SDS011;68062;48.726;9.370;2023-04-07T00:30:02;7.87;;;5.70;;
78740;SDS011;68062;48.726;9.370;2023-04-07T00:32:29;8.10;;;5.37;;
78740;SDS011;68062;48.726;9.370;2023-04-07T00:34:58;7.37;;;5.50;;
78740;SDS011;68062;48.726;9.370;2023-04-07T00:37:26;8.80;;;5.77;;
78740;SDS011;68062;48.726;9.370;2023-04-07T00:39:53;8.63;;;5.90;;
78740;SDS011;68062;48.726;9.370;2023-04-07T00:42:21;8.87;;;6.20;;
78740;SDS011;68062;48.726;9.370;2023-04-07T00:44:48;8.53;;;6.03;;
78740;SDS011;68062;48.726;9.370;2023-04-07T00:47:15;9.63;;;5.70;;
78740;SDS011;68062;48.726;9.370;2023-04-07T00:49:42;8.43;;;6.40;;
78740;SDS011;68062;48.726;9.370;2023-04-07T00:52:08;6.17;;;5.07;;
78740;SDS011;68062;48.726;9.370;2023-04-07T00:54:37;9.20;;;6.20;;
78740;SDS011;68062;48.726;9.370;2023-04-07T00:57:05;9.17;;;5.70;;
78740;SDS011;68062;48.726;9.370;2023-04-07T00:59:32;10.23;;;7.30;;
78740;SDS011;68062;48.726;9.370;2023-04-07T01:02:01;9.37;;;5.50;;
78740;SDS011;68062;48.726;9.370;2023-04-07T01:04:32;9.40;;;5.67;;
78740;SDS011;68062;48.726;9.370;2023-04-07T01:07:03;8.90;;;6.60;;
78740;SDS011;68062;48.726;9.370;2023-04-07T01:09:42;10.17;;;5.57;;
78740;SDS011;68062;48.726;9.370;2023-04-07T01:12:14;9.20;;;6.17;;
78740;SDS011;68062;48.726;9.370;2023-04-07T01:14:50;9.47;;;6.50;;
78740;SDS011;68062;48.726;9.370;2023-04-07T01:17:31;7.37;;;5.47;;
78740;SDS011;68062;48.726;9.370;2023-04-07T01:20:01;10.90;;;6.33;;
78740;SDS011;68062;48.726;9.370;2023-04-07T01:22:32;9.83;;;6.70;;
78740;SDS011;68062;48.726;9.370;2023-04-07T01:25:25;8.43;;;5.93;;
78740;SDS011;68062;48.726;9.370;2023-04-07T01:27:58;9.70;;;6.33;;
78740;SDS011;68062;48.726;9.370;2023-04-07T01:30:39;9.80;;;6.23;;
78740;SDS011;68062;48.726;9.370;2023-04-07T01:33:06;11.67;;;6.60;;
78740;SDS011;68062;48.726;9.370;2023-04-07T01:35:35;10.70;;;6.37;;
78740;SDS011;68062;48.726;9.370;2023-04-07T01:38:04;9.03;;;6.47;;
78740;SDS011;68062;48.726;9.370;2023-04-07T01:40:32;7.83;;;5.97;;
78740;SDS011;68062;48.726;9.370;2023-04-07T01:43:00;12.33;;;6.27;;
78740;SDS011;68062;48.726;9.370;2023-04-07T01:45:27;11.07;;;6.60;;
78740;SDS011;68062;48.726;9.370;2023-04-07T01:47:57;8.60;;;6.30;;
78740;SDS011;68062;48.726;9.370;2023-04-07T01:50:25;11.07;;;6.20;;
78740;SDS011;68062;48.726;9.370;2023-04-07T01:52:53;10.43;;;6.17;;
78740;SDS011;68062;48.726;9.370;2023-04-07T01:55:21;9.40;;;6.90;;
78740;SDS011;68062;48.726;9.370;2023-04-07T01:58:02;12.80;;;6.27;;
78740;SDS011;68062;48.726;9.370;2023-04-07T02:00:29;11.37;;;6.07;;
78740;SDS011;68062;48.726;9.370;2023-04-07T02:02:58;9.53;;;6.40;;
78740;SDS011;68062;48.726;9.370;2023-04-07T02:05:30;9.50;;;6.17;;
78740;SDS011;68062;48.726;9.370;2023-04-07T02:08:00;11.97;;;7.60;;
78740;SDS011;68062;48.726;9.370;2023-04-07T02:10:31;11.33;;;6.80;;
78740;SDS011;68062;48.726;9.370;2023-04-07T02:13:02;8.63;;;6.10;;
78740;SDS011;68062;48.726;9.370;2023-04-07T02:15:33;11.10;;;6.50;;
78740;SDS011;68062;48.726;9.370;2023-04-07T02:18:04;9.87;;;6.30;;
78740;SDS011;68062;48.726;9.370;2023-04-07T02:20:35;9.80;;;6.60;;
78740;SDS011;68062;48.726;9.370;2023-04-07T02:23:02;10.23;;;7.30;;
78740;SDS011;68062;48.726;9.370;2023-04-07T02:25:30;9.60;;;6.07;;
78740;SDS011;68062;48.726;9.370;2023-04-07T02:27:58;13.00;;;6.27;;
78740;SDS011;68062;48.726;9.370;2023-04-07T02:30:27;8.77;;;6.63;;
78740;SDS011;68062;48.726;9.370;2023-04-07T02:32:54;9.63;;;6.50;;
78740;SDS011;68062;48.726;9.370;2023-04-07T02:35:22;11.73;;;6.23;;
78740;SDS011;68062;48.726;9.370;2023-04-07T02:37:50;8.77;;;6.63;;
78740;SDS011;68062;48.726;9.370;2023-04-07T02:40:17;9.50;;;6.47;;
78740;SDS011;68062;48.726;9.370;2023-04-07T02:42:43;8.97;;;6.23;;
78740;SDS011;68062;48.726;9.370;2023-04-07T02:45:11;12.97;;;7.80;;
78740;SDS011;68062;48.726;9.370;2023-04-07T02:47:38;10.90;;;6.90;;
78740;SDS011;68062;48.726;9.370;2023-04-07T02:50:05;10.63;;;7.00;;
78740;SDS011;68062;48.726;9.370;2023-04-07T02:52:35;10.27;;;6.67;;
78740;SDS011;68062;48.726;9.370;2023-04-07T02:55:08;12.07;;;6.73;;
78740;SDS011;68062;48.726;9.370;2023-04-07T02:57:35;12.63;;;7.83;;
78740;SDS011;68062;48.726;9.370;2023-04-07T03:00:06;13.03;;;7.83;;
78740;SDS011;68062;48.726;9.370;2023-04-07T03:02:51;11.33;;;7.90;;
78740;SDS011;68062;48.726;9.370;2023-04-07T03:05:19;11.77;;;8.63;;
78740;SDS011;68062;48.726;9.370;2023-04-07T03:07:47;9.67;;;6.70;;
78740;SDS011;68062;48.726;9.370;2023-04-07T03:10:14;12.83;;;8.73;;
78740;SDS011;68062;48.726;9.370;2023-04-07T03:12:41;11.87;;;7.63;;
78740;SDS011;68062;48.726;9.370;2023-04-07T03:15:09;11.27;;;7.70;;
78740;SDS011;68062;48.726;9.370;2023-04-07T03:17:39;9.53;;;7.20;;
78740;SDS011;68062;48.726;9.370;2023-04-07T03:20:06;9.90;;;8.07;;
78740;SDS011;68062;48.726;9.370;2023-04-07T03:22:35;11.50;;;7.37;;
78740;SDS011;68062;48.726;9.370;2023-04-07T03:25:07;11.10;;;6.67;;
78740;SDS011;68062;48.726;9.370;2023-04-07T03:27:34;8.40;;;6.60;;
78740;SDS011;68062;48.726;9.370;2023-04-07T03:30:01;11.20;;;6.83;;
78740;SDS011;68062;48.726;9.370;2023-04-07T03:32:29;15.77;;;9.20;;
78740;SDS011;68062;48.726;9.370;2023-04-07T03:34:56;11.40;;;7.40;;
78740;SDS011;68062;48.726;9.370;2023-04-07T03:37:22;10.80;;;7.27;;
78740;SDS011;68062;48.726;9.370;2023-04-07T03:39:50;14.27;;;7.90;;
78740;SDS011;68062;48.726;9.370;2023-04-07T03:42:31;12.27;;;8.30;;
78740;SDS011;68062;48.726;9.370;2023-04-07T03:45:02;14.13;;;7.20;;
78740;SDS011;68062;48.726;9.370;2023-04-07T03:47:31;11.67;;;8.23;;
78740;SDS011;68062;48.726;9.370;2023-04-07T03:50:00;12.50;;;7.90;;
78740;SDS011;68062;48.726;9.370;2023-04-07T03:52:31;11.60;;;8.90;;
78740;SDS011;68062;48.726;9.370;2023-04-07T03:55:07;12.87;;;7.73;;
78740;SDS011;68062;48.726;9.370;2023-04-07T03:57:36;13.73;;;8.07;;
78740;SDS011;68062;48.726;9.370;2023-04-07T04:00:03;13.17;;;7.53;;
78740;SDS011;68062;48.726;9.370;2023-04-07T04:02:41;11.87;;;7.67;;
78740;SDS011;68062;48.726;9.370;2023-04-07T04:05:12;15.87;;;8.03;;
78740;SDS011;68062;48.726;9.370;2023-04-07T04:07:39;12.17;;;8.13;;
78740;SDS011;68062;48.726;9.370;2023-04-07T04:10:06;12.20;;;8.03;;
78740;SDS011;68062;48.726;9.370;2023-04-07T04:12:39;10.70;;;8.60;;
78740;SDS011;68062;48.726;9.370;2023-04-07T04:15:09;12.37;;;7.53;;
78740;SDS011;68062;48.726;9.370;2023-04-07T04:17:37;12.90;;;8.17;;
78740;SDS011;68062;48.726;9.370;2023-04-07T04:20:04;13.47;;;8.77;;
78740;SDS011;68062;48.726;9.370;2023-04-07T04:22:46;11.50;;;7.90;;
78740;SDS011;68062;48.726;9.370;2023-04-07T04:25:13;11.73;;;7.97;;
78740;SDS011;68062;48.726;9.370;2023-04-07T04:27:46;12.20;;;8.30;;
78740;SDS011;68062;48.726;9.370;2023-04-07T04:30:19;13.77;;;7.97;;
78740;SDS011;68062;48.726;9.370;2023-04-07T04:32:50;14.37;;;9.20;;
78740;SDS011;68062;48.726;9.370;2023-04-07T04:35:24;12.07;;;7.33;;
78740;SDS011;68062;48.726;9.370;2023-04-07T04:38:04;16.87;;;9.40;;
78740;SDS011;68062;48.726;9.370;2023-04-07T04:40:31;12.53;;;8.03;;
78740;SDS011;68062;48.726;9.370;2023-04-07T04:42:59;14.20;;;9.43;;
78740;SDS011;68062;48.726;9.370;2023-04-07T04:45:26;14.40;;;9.43;;
78740;SDS011;68062;48.726;9.370;2023-04-07T04:47:53;13.33;;;8.67;;
78740;SDS011;68062;48.726;9.370;2023-04-07T04:50:20;13.73;;;8.33;;
78740;SDS011;68062;48.726;9.370;2023-04-07T04:52:48;13.27;;;9.03;;
78740;SDS011;68062;48.726;9.370;2023-04-07T04:55:19;13.90;;;9.23;;
78740;SDS011;68062;48.726;9.370;2023-04-07T04:57:46;18.10;;;9.77;;
78740;SDS011;68062;48.726;9.370;2023-04-07T05:00:20;11.23;;;7.70;;
78740;SDS011;68062;48.726;9.370;2023-04-07T05:02:53;12.40;;;8.13;;
78740;SDS011;68062;48.726;9.370;2023-04-07T05:05:20;14.40;;;8.40;;
78740;SDS011;68062;48.726;9.370;2023-04-07T05:07:49;12.52;;;8.43;;
78740;SDS011;68062;48.726;9.370;2023-04-07T05:10:16;12.27;;;8.77;;
78740;SDS011;68062;48.726;9.370;2023-04-07T05:12:47;17.47;;;8.43;;
78740;SDS011;68062;48.726;9.370;2023-04-07T05:15:15;13.43;;;9.63;;
78740;SDS011;68062;48.726;9.370;2023-04-07T05:17:46;12.73;;;8.80;;
78740;SDS011;68062;48.726;9.370;2023-04-07T05:20:19;14.47;;;9.97;;
78740;SDS011;68062;48.726;9.370;2023-04-07T05:22:45;10.97;;;7.57;;
78740;SDS011;68062;48.726;9.370;2023-04-07T05:25:13;14.80;;;8.33;;
78740;SDS011;68062;48.726;9.370;2023-04-07T05:27:42;11.20;;;7.67;;
78740;SDS011;68062;48.726;9.370;2023-04-07T05:30:13;11.90;;;8.50;;
78740;SDS011;68062;48.726;9.370;2023-04-07T05:32:40;12.50;;;8.60;;
78740;SDS011;68062;48.726;9.370;2023-04-07T05:35:18;17.63;;;9.30;;
78740;SDS011;68062;48.726;9.370;2023-04-07T05:37:50;13.77;;;9.50;;
78740;SDS011;68062;48.726;9.370;2023-04-07T05:40:17;13.93;;;9.50;;
78740;SDS011;68062;48.726;9.370;2023-04-07T05:42:44;14.67;;;8.37;;
78740;SDS011;68062;48.726;9.370;2023-04-07T05:45:11;15.93;;;9.33;;
78740;SDS011;68062;48.726;9.370;2023-04-07T05:47:42;12.80;;;10.27;;
78740;SDS011;68062;48.726;9.370;2023-04-07T05:50:11;14.40;;;10.00;;
78740;SDS011;68062;48.726;9.370;2023-04-07T05:52:41;16.00;;;9.80;;
78740;SDS011;68062;48.726;9.370;2023-04-07T05:55:17;16.50;;;9.23;;
78740;SDS011;68062;48.726;9.370;2023-04-07T05:57:44;13.17;;;9.00;;
78740;SDS011;68062;48.726;9.370;2023-04-07T06:00:12;13.37;;;8.50;;
78740;SDS011;68062;48.726;9.370;2023-04-07T06:02:42;13.63;;;8.17;;
78740;SDS011;68062;48.726;9.370;2023-04-07T06:05:15;13.73;;;8.70;;
78740;SDS011;68062;48.726;9.370;2023-04-07T06:07:45;13.97;;;8.23;;
78740;SDS011;68062;48.726;9.370;2023-04-07T06:10:12;14.77;;;10.07;;
78740;SDS011;68062;48.726;9.370;2023-04-07T06:12:40;13.53;;;8.70;;
78740;SDS011;68062;48.726;9.370;2023-04-07T06:15:07;17.83;;;10.20;;
78740;SDS011;68062;48.726;9.370;2023-04-07T06:17:33;20.20;;;10.57;;
78740;SDS011;68062;48.726;9.370;2023-04-07T06:20:00;18.93;;;10.50;;
78740;SDS011;68062;48.726;9.370;2023-04-07T06:22:31;15.17;;;10.43;;
78740;SDS011;68062;48.726;9.370;2023-04-07T06:25:00;18.43;;;11.10;;
78740;SDS011;68062;48.726;9.370;2023-04-07T06:27:26;15.23;;;10.30;;
78740;SDS011;68062;48.726;9.370;2023-04-07T06:29:55;17.13;;;9.77;;
78740;SDS011;68062;48.726;9.370;2023-04-07T06:32:21;16.60;;;9.30;;
78740;SDS011;68062;48.726;9.370;2023-04-07T06:34:48;16.70;;;10.40;;
78740;SDS011;68062;48.726;9.370;2023-04-07T06:37:15;17.47;;;9.13;;
78740;SDS011;68062;48.726;9.370;2023-04-07T06:39:42;15.77;;;10.10;;
78740;SDS011;68062;48.726;9.370;2023-04-07T06:42:11;17.97;;;10.27;;
78740;SDS011;68062;48.726;9.370;2023-04-07T06:44:48;18.60;;;10.30;;
78740;SDS011;68062;48.726;9.370;2023-04-07T06:47:14;15.50;;;10.50;;
78740;SDS011;68062;48.726;9.370;2023-04-07T06:49:41;15.70;;;9.93;;
78740;SDS011;68062;48.726;9.370;2023-04-07T06:52:07;19.50;;;11.70;;
78740;SDS011;68062;48.726;9.370;2023-04-07T06:54:34;15.53;;;10.27;;
78740;SDS011;68062;48.726;9.370;2023-04-07T06:57:00;12.97;;;9.13;;
78740;SDS011;68062;48.726;9.370;2023-04-07T06:59:29;15.70;;;10.03;;
78740;SDS011;68062;48.726;9.370;2023-04-07T07:01:56;13.87;;;10.20;;
78740;SDS011;68062;48.726;9.370;2023-04-07T07:04:22;14.57;;;9.53;;
78740;SDS011;68062;48.726;9.370;2023-04-07T07:06:49;15.10;;;8.83;;
78740;SDS011;68062;48.726;9.370;2023-04-07T07:09:15;16.10;;;9.53;;
78740;SDS011;68062;48.726;9.370;2023-04-07T07:11:42;18.03;;;10.00;;
78740;SDS011;68062;48.726;9.370;2023-04-07T07:14:09;17.00;;;10.50;;
78740;SDS011;68062;48.726;9.370;2023-04-07T07:16:36;15.53;;;9.90;;
78740;SDS011;68062;48.726;9.370;2023-04-07T07:19:03;12.60;;;9.60;;
78740;SDS011;68062;48.726;9.370;2023-04-07T07:21:30;12.33;;;9.40;;
78740;SDS011;68062;48.726;9.370;2023-04-07T07:23:57;16.30;;;10.17;;
78740;SDS011;68062;48.726;9.370;2023-04-07T07:26:23;15.43;;;9.83;;
78740;SDS011;68062;48.726;9.370;2023-04-07T07:28:50;12.70;;;8.67;;
78740;SDS011;68062;48.726;9.370;2023-04-07T07:31:16;12.87;;;9.47;;
78740;SDS011;68062;48.726;9.370;2023-04-07T07:33:44;13.83;;;8.97;;
78740;SDS011;68062;48.726;9.370;2023-04-07T07:36:13;12.90;;;9.33;;
78740;SDS011;68062;48.726;9.370;2023-04-07T07:38:39;10.73;;;8.00;;
78740;SDS011;68062;48.726;9.370;2023-04-07T07:41:06;11.27;;;8.10;;
78740;SDS011;68062;48.726;9.370;2023-04-07T07:43:34;11.47;;;8.60;;
78740;SDS011;68062;48.726;9.370;2023-04-07T07:46:01;9.17;;;7.33;;
78740;SDS011;68062;48.726;9.370;2023-04-07T07:48:28;7.63;;;7.20;;
78740;SDS011;68062;48.726;9.370;2023-04-07T07:50:56;7.33;;;6.40;;
78740;SDS011;68062;48.726;9.370;2023-04-07T07:53:23;11.37;;;7.73;;
78740;SDS011;68062;48.726;9.370;2023-04-07T07:55:49;9.93;;;8.23;;
78740;SDS011;68062;48.726;9.370;2023-04-07T07:58:16;7.90;;;6.23;;
78740;SDS011;68062;48.726;9.370;2023-04-07T08:00:43;9.10;;;7.40;;
78740;SDS011;68062;48.726;9.370;2023-04-07T08:03:10;13.23;;;8.70;;
78740;SDS011;68062;48.726;9.370;2023-04-07T08:05:36;10.27;;;7.80;;
78740;SDS011;68062;48.726;9.370;2023-04-07T08:08:04;9.73;;;7.53;;
78740;SDS011;68062;48.726;9.370;2023-04-07T08:10:31;8.73;;;7.13;;
78740;SDS011;68062;48.726;9.370;2023-04-07T08:12:58;8.03;;;7.27;;
78740;SDS011;68062;48.726;9.370;2023-04-07T08:15:24;10.90;;;8.23;;
78740;SDS011;68062;48.726;9.370;2023-04-07T08:17:51;12.07;;;7.77;;
78740;SDS011;68062;48.726;9.370;2023-04-07T08:20:17;10.83;;;7.97;;
78740;SDS011;68062;48.726;9.370;2023-04-07T08:22:45;8.67;;;7.30;;
78740;SDS011;68062;48.726;9.370;2023-04-07T08:25:12;8.37;;;6.13;;
78740;SDS011;68062;48.726;9.370;2023-04-07T08:27:40;8.07;;;6.70;;
78740;SDS011;68062;48.726;9.370;2023-04-07T08:30:10;6.70;;;5.90;;
78740;SDS011;68062;48.726;9.370;2023-04-07T08:32:36;6.70;;;5.93;;
78740;SDS011;68062;48.726;9.370;2023-04-07T08:35:04;8.40;;;6.30;;
78740;SDS011;68062;48.726;9.370;2023-04-07T08:37:32;6.80;;;5.73;;
78740;SDS011;68062;48.726;9.370;2023-04-07T08:39:59;6.70;;;5.80;;
78740;SDS011;68062;48.726;9.370;2023-04-07T08:42:29;9.97;;;7.93;;
78740;SDS011;68062;48.726;9.370;2023-04-07T08:44:58;8.50;;;6.30;;
78740;SDS011;68062;48.726;9.370;2023-04-07T08:47:29;6.33;;;5.80;;
78740;SDS011;68062;48.726;9.370;2023-04-07T08:49:59;7.30;;;5.20;;
78740;SDS011;68062;48.726;9.370;2023-04-07T08:52:30;5.73;;;4.70;;
78740;SDS011;68062;48.726;9.370;2023-04-07T08:54:59;6.63;;;4.70;;
78740;SDS011;68062;48.726;9.370;2023-04-07T08:57:29;5.73;;;4.30;;
78740;SDS011;68062;48.726;9.370;2023-04-07T08:59:57;5.50;;;4.40;;
78740;SDS011;68062;48.726;9.370;2023-04-07T09:02:29;11.47;;;5.10;;
78740;SDS011;68062;48.726;9.370;2023-04-07T09:04:57;5.00;;;4.37;;
78740;SDS011;68062;48.726;9.370;2023-04-07T09:07:25;6.47;;;4.83;;
78740;SDS011;68062;48.726;9.370;2023-04-07T09:09:51;6.30;;;5.90;;
78740;SDS011;68062;48.726;9.370;2023-04-07T09:12:18;7.47;;;5.33;;
78740;SDS011;68062;48.726;9.370;2023-04-07T09:14:46;6.90;;;5.40;;
78740;SDS011;68062;48.726;9.370;2023-04-07T09:17:13;8.50;;;5.67;;
78740;SDS011;68062;48.726;9.370;2023-04-07T09:19:39;7.40;;;5.43;;
78740;SDS011;68062;48.726;9.370;2023-04-07T09:22:06;5.77;;;5.47;;
78740;SDS011;68062;48.726;9.370;2023-04-07T09:24:36;5.37;;;5.13;;
78740;SDS011;68062;48.726;9.370;2023-04-07T09:27:10;7.13;;;4.83;;
78740;SDS011;68062;48.726;9.370;2023-04-07T09:29:37;7.63;;;5.00;;
78740;SDS011;68062;48.726;9.370;2023-04-07T09:32:08;5.90;;;4.00;;
78740;SDS011;68062;48.726;9.370;2023-04-07T09:34:36;5.53;;;4.53;;
78740;SDS011;68062;48.726;9.370;2023-04-07T09:37:04;4.97;;;4.20;;
78740;SDS011;68062;48.726;9.370;2023-04-07T09:39:33;5.23;;;3.60;;
78740;SDS011;68062;48.726;9.370;2023-04-07T09:42:14;5.03;;;3.50;;
78740;SDS011;68062;48.726;9.370;2023-04-07T09:44:41;7.43;;;3.87;;
78740;SDS011;68062;48.726;9.370;2023-04-07T09:47:10;10.47;;;8.10;;
78740;SDS011;68062;48.726;9.370;2023-04-07T09:49:47;4.43;;;4.17;;
78740;SDS011;68062;48.726;9.370;2023-04-07T09:52:14;6.57;;;4.27;;
78740;SDS011;68062;48.726;9.370;2023-04-07T09:54:41;5.33;;;4.07;;
78740;SDS011;68062;48.726;9.370;2023-04-07T09:57:08;6.70;;;4.60;;
78740;SDS011;68062;48.726;9.370;2023-04-07T09:59:37;5.87;;;3.87;;
78740;SDS011;68062;48.726;9.370;2023-04-07T10:02:05;4.80;;;4.50;;
78740;SDS011;68062;48.726;9.370;2023-04-07T10:04:34;4.20;;;3.70;;
78740;SDS011;68062;48.726;9.370;2023-04-07T10:07:03;6.20;;;5.90;;
78740;SDS011;68062;48.726;9.370;2023-04-07T10:09:30;6.30;;;4.03;;
78740;SDS011;68062;48.726;9.370;2023-04-07T10:11:57;4.43;;;4.03;;
78740;SDS011;68062;48.726;9.370;2023-04-07T10:14:25;6.40;;;4.67;;
78740;SDS011;68062;48.726;9.370;2023-04-07T10:16:53;6.73;;;4.13;;
78740;SDS011;68062;48.726;9.370;2023-04-07T10:19:20;6.00;;;4.37;;
78740;SDS011;68062;48.726;9.370;2023-04-07T10:21:50;6.20;;;5.10;;
78740;SDS011;68062;48.726;9.370;2023-04-07T10:24:24;6.73;;;4.30;;
78740;SDS011;68062;48.726;9.370;2023-04-07T10:26:58;5.50;;;4.40;;
78740;SDS011;68062;48.726;9.370;2023-04-07T10:29:30;5.43;;;4.17;;
78740;SDS011;68062;48.726;9.370;2023-04-07T10:32:00;7.20;;;4.37;;
78740;SDS011;68062;48.726;9.370;2023-04-07T10:34:54;6.33;;;4.17;;
78740;SDS011;68062;48.726;9.370;2023-04-07T10:37:23;7.07;;;4.67;;
78740;SDS011;68062;48.726;9.370;2023-04-07T10:42:55;6.83;;;4.53;;
78740;SDS011;68062;48.726;9.370;2023-04-07T10:48:17;5.07;;;4.03;;
78740;SDS011;68062;48.726;9.370;2023-04-07T10:50:46;5.23;;;4.77;;
78740;SDS011;68062;48.726;9.370;2023-04-07T10:57:04;6.33;;;5.50;;
78740;SDS011;68062;48.726;9.370;2023-04-07T10:59:34;5.37;;;3.80;;
78740;SDS011;68062;48.726;9.370;2023-04-07T11:04:56;4.90;;;3.80;;
78740;SDS011;68062;48.726;9.370;2023-04-07T11:07:42;7.40;;;4.23;;
78740;SDS011;68062;48.726;9.370;2023-04-07T11:10:13;6.03;;;4.50;;
78740;SDS011;68062;48.726;9.370;2023-04-07T11:12:42;4.50;;;4.00;;
78740;SDS011;68062;48.726;9.370;2023-04-07T11:15:15;4.93;;;3.37;;
78740;SDS011;68062;48.726;9.370;2023-04-07T11:17:42;5.70;;;3.60;;
78740;SDS011;68062;48.726;9.370;2023-04-07T11:20:10;6.10;;;3.70;;
78740;SDS011;68062;48.726;9.370;2023-04-07T11:22:37;4.33;;;4.03;;
78740;SDS011;68062;48.726;9.370;2023-04-07T11:25:15;5.60;;;4.17;;
78740;SDS011;68062;48.726;9.370;2023-04-07T11:27:47;5.10;;;4.30;;
78740;SDS011;68062;48.726;9.370;2023-04-07T11:30:14;7.00;;;4.30;;
78740;SDS011;68062;48.726;9.370;2023-04-07T11:32:46;5.03;;;3.63;;
78740;SDS011;68062;48.726;9.370;2023-04-07T11:35:15;4.47;;;3.37;;
78740;SDS011;68062;48.726;9.370;2023-04-07T11:37:41;4.60;;;3.80;;
78740;SDS011;68062;48.726;9.370;2023-04-07T11:40:09;4.67;;;3.57;;
78740;SDS011;68062;48.726;9.370;2023-04-07T11:42:37;5.13;;;4.00;;
78740;SDS011;68062;48.726;9.370;2023-04-07T11:45:16;5.40;;;3.60;;
78740;SDS011;68062;48.726;9.370;2023-04-07T11:47:44;4.10;;;2.67;;
78740;SDS011;68062;48.726;9.370;2023-04-07T11:50:12;3.00;;;2.80;;
78740;SDS011;68062;48.726;9.370;2023-04-07T11:52:42;5.40;;;2.63;;
78740;SDS011;68062;48.726;9.370;2023-04-07T11:55:16;4.90;;;3.13;;
78740;SDS011;68062;48.726;9.370;2023-04-07T11:57:43;5.70;;;3.47;;
78740;SDS011;68062;48.726;9.370;2023-04-07T12:00:12;4.90;;;2.93;;
78740;SDS011;68062;48.726;9.370;2023-04-07T12:02:40;6.07;;;4.50;;
78740;SDS011;68062;48.726;9.370;2023-04-07T12:05:07;4.77;;;3.30;;
78740;SDS011;68062;48.726;9.370;2023-04-07T12:11:22;6.80;;;3.50;;
78740;SDS011;68062;48.726;9.370;2023-04-07T12:13:49;5.80;;;3.47;;
78740;SDS011;68062;48.726;9.370;2023-04-07T12:16:17;6.07;;;3.43;;
78740;SDS011;68062;48.726;9.370;2023-04-07T12:18:45;3.23;;;3.03;;
78740;SDS011;68062;48.726;9.370;2023-04-07T12:21:12;4.23;;;3.80;;
78740;SDS011;68062;48.726;9.370;2023-04-07T12:23:39;6.43;;;3.50;;
78740;SDS011;68062;48.726;9.370;2023-04-07T12:26:06;3.97;;;3.00;;
78740;SDS011;68062;48.726;9.370;2023-04-07T12:28:32;6.83;;;3.50;;
78740;SDS011;68062;48.726;9.370;2023-04-07T12:30:59;4.80;;;3.30;;
78740;SDS011;68062;48.726;9.370;2023-04-07T12:33:27;7.43;;;3.90;;
78740;SDS011;68062;48.726;9.370;2023-04-07T12:35:54;3.30;;;2.83;;
78740;SDS011;68062;48.726;9.370;2023-04-07T12:38:21;4.93;;;2.90;;
78740;SDS011;68062;48.726;9.370;2023-04-07T12:40:47;6.83;;;3.37;;
78740;SDS011;68062;48.726;9.370;2023-04-07T12:43:24;4.00;;;3.17;;
78740;SDS011;68062;48.726;9.370;2023-04-07T12:45:52;5.43;;;3.53;;
78740;SDS011;68062;48.726;9.370;2023-04-07T12:48:18;6.80;;;4.70;;
78740;SDS011;68062;48.726;9.370;2023-04-07T12:50:47;8.60;;;5.10;;
78740;SDS011;68062;48.726;9.370;2023-04-07T12:53:14;7.40;;;5.87;;
78740;SDS011;68062;48.726;9.370;2023-04-07T12:55:40;8.63;;;5.93;;
78740;SDS011;68062;48.726;9.370;2023-04-07T12:58:07;7.63;;;5.37;;
78740;SDS011;68062;48.726;9.370;2023-04-07T13:00:34;7.07;;;5.27;;
78740;SDS011;68062;48.726;9.370;2023-04-07T13:03:01;8.57;;;5.00;;
78740;SDS011;68062;48.726;9.370;2023-04-07T13:05:27;5.77;;;4.50;;
78740;SDS011;68062;48.726;9.370;2023-04-07T13:07:55;6.30;;;4.50;;
78740;SDS011;68062;48.726;9.370;2023-04-07T13:10:22;4.60;;;4.30;;
78740;SDS011;68062;48.726;9.370;2023-04-07T13:12:49;7.73;;;4.60;;
78740;SDS011;68062;48.726;9.370;2023-04-07T13:15:16;5.67;;;3.77;;
78740;SDS011;68062;48.726;9.370;2023-04-07T13:17:43;5.23;;;4.10;;
78740;SDS011;68062;48.726;9.370;2023-04-07T13:20:09;5.67;;;3.53;;
78740;SDS011;68062;48.726;9.370;2023-04-07T13:22:37;4.53;;;3.47;;
78740;SDS011;68062;48.726;9.370;2023-04-07T13:25:06;3.27;;;2.80;;
78740;SDS011;68062;48.726;9.370;2023-04-07T13:27:32;4.00;;;3.80;;
78740;SDS011;68062;48.726;9.370;2023-04-07T13:29:59;4.50;;;2.77;;
78740;SDS011;68062;48.726;9.370;2023-04-07T13:32:26;4.63;;;2.80;;
78740;SDS011;68062;48.726;9.370;2023-04-07T13:34:52;3.93;;;2.93;;
78740;SDS011;68062;48.726;9.370;2023-04-07T13:37:19;6.50;;;3.40;;
78740;SDS011;68062;48.726;9.370;2023-04-07T13:39:46;5.47;;;3.43;;
78740;SDS011;68062;48.726;9.370;2023-04-07T13:42:15;4.23;;;3.50;;
78740;SDS011;68062;48.726;9.370;2023-04-07T13:44:43;5.90;;;3.80;;
78740;SDS011;68062;48.726;9.370;2023-04-07T13:47:12;7.00;;;3.10;;
78740;SDS011;68062;48.726;9.370;2023-04-07T13:49:44;4.30;;;2.87;;
78740;SDS011;68062;48.726;9.370;2023-04-07T13:52:11;4.13;;;2.83;;
78740;SDS011;68062;48.726;9.370;2023-04-07T13:54:39;3.80;;;2.70;;
78740;SDS011;68062;48.726;9.370;2023-04-07T13:57:05;6.30;;;2.60;;
78740;SDS011;68062;48.726;9.370;2023-04-07T13:59:34;4.20;;;2.93;;
78740;SDS011;68062;48.726;9.370;2023-04-07T14:02:00;7.63;;;3.40;;
78740;SDS011;68062;48.726;9.370;2023-04-07T14:04:27;3.67;;;3.20;;
78740;SDS011;68062;48.726;9.370;2023-04-07T14:06:53;3.60;;;2.60;;
78740;SDS011;68062;48.726;9.370;2023-04-07T14:09:20;4.60;;;3.30;;
78740;SDS011;68062;48.726;9.370;2023-04-07T14:11:47;3.67;;;2.73;;
78740;SDS011;68062;48.726;9.370;2023-04-07T14:14:14;2.60;;;2.40;;
78740;SDS011;68062;48.726;9.370;2023-04-07T14:16:42;2.47;;;2.20;;
78740;SDS011;68062;48.726;9.370;2023-04-07T14:19:09;2.17;;;2.00;;
78740;SDS011;68062;48.726;9.370;2023-04-07T14:21:35;3.60;;;2.13;;
78740;SDS011;68062;48.726;9.370;2023-04-07T14:24:02;4.37;;;2.90;;
78740;SDS011;68062;48.726;9.370;2023-04-07T14:26:29;3.53;;;3.20;;
78740;SDS011;68062;48.726;9.370;2023-04-07T14:28:55;4.63;;;2.97;;
78740;SDS011;68062;48.726;9.370;2023-04-07T14:31:24;4.37;;;3.23;;
78740;SDS011;68062;48.726;9.370;2023-04-07T14:33:52;4.73;;;2.87;;
78740;SDS011;68062;48.726;9.370;2023-04-07T14:36:20;2.80;;;2.60;;
78740;SDS011;68062;48.726;9.370;2023-04-07T14:38:46;2.50;;;2.30;;
78740;SDS011;68062;48.726;9.370;2023-04-07T14:41:14;4.20;;;2.30;;
78740;SDS011;68062;48.726;9.370;2023-04-07T14:43:42;5.50;;;2.13;;
78740;SDS011;68062;48.726;9.370;2023-04-07T14:46:08;3.93;;;2.53;;
78740;SDS011;68062;48.726;9.370;2023-04-07T14:48:36;3.50;;;2.90;;
78740;SDS011;68062;48.726;9.370;2023-04-07T14:51:10;3.20;;;2.00;;
78740;SDS011;68062;48.726;9.370;2023-04-07T14:53:38;2.87;;;2.30;;
78740;SDS011;68062;48.726;9.370;2023-04-07T14:56:06;4.07;;;3.17;;
78740;SDS011;68062;48.726;9.370;2023-04-07T14:58:33;4.03;;;2.50;;
78740;SDS011;68062;48.726;9.370;2023-04-07T15:01:03;5.90;;;2.83;;
78740;SDS011;68062;48.726;9.370;2023-04-07T15:03:30;4.33;;;2.70;;
78740;SDS011;68062;48.726;9.370;2023-04-07T15:05:57;4.37;;;3.00;;